createdAt,value
2022-11-19T00:01:46.159Z,1.74
2022-11-19T00:04:43.559Z,1.85
2022-11-19T00:07:40.211Z,1.78
2022-11-19T00:10:38.213Z,1.80
2022-11-19T00:13:35.636Z,1.71
2022-11-19T00:16:33.384Z,1.59
2022-11-19T00:19:30.156Z,1.77
2022-11-19T00:22:27.465Z,1.77
2022-11-19T00:25:25.623Z,1.66
2022-11-19T00:28:23.190Z,1.60
2022-11-19T00:31:20.128Z,1.75
2022-11-19T00:34:17.164Z,1.70
2022-11-19T00:37:14.488Z,1.82
2022-11-19T00:40:12.807Z,1.89
2022-11-19T00:43:29.043Z,1.71
2022-11-19T00:46:30.897Z,1.62
2022-11-19T00:49:28.263Z,1.41
2022-11-19T00:52:25.492Z,1.41
2022-11-19T00:55:22.493Z,1.29
2022-11-19T00:58:19.600Z,1.54
2022-11-19T01:01:18.163Z,1.85
2022-11-19T01:04:15.261Z,1.72
2022-11-19T01:07:12.660Z,1.43
2022-11-19T01:10:10.342Z,1.32
2022-11-19T01:13:25.517Z,1.40
2022-11-19T01:16:27.545Z,1.31
2022-11-19T01:19:24.517Z,1.17
2022-11-19T01:22:21.250Z,1.23
2022-11-19T01:25:18.501Z,1.39
2022-11-19T01:28:15.616Z,1.40
2022-11-19T01:31:17.240Z,1.30
2022-11-19T01:34:14.170Z,1.23
2022-11-19T01:37:11.139Z,1.21
2022-11-19T01:40:09.240Z,1.14
2022-11-19T01:43:06.035Z,1.03
2022-11-19T01:46:03.617Z,0.91
2022-11-19T01:49:09.511Z,0.84
2022-11-19T01:52:06.573Z,0.68
2022-11-19T01:55:03.285Z,0.81
2022-11-19T01:58:00.498Z,0.98
2022-11-19T02:00:57.628Z,1.15
2022-11-19T02:03:54.393Z,1.18
2022-11-19T02:06:51.261Z,1.05
2022-11-19T02:09:48.262Z,0.89
2022-11-19T02:12:56.723Z,0.84
2022-11-19T02:15:57.552Z,0.69
2022-11-19T02:19:17.993Z,0.75
2022-11-19T02:22:50.673Z,0.72
2022-11-19T02:26:15.101Z,0.55
2022-11-19T02:29:30.633Z,0.65
2022-11-19T02:32:36.225Z,0.66
2022-11-19T02:35:44.960Z,0.65
2022-11-19T02:38:49.185Z,0.54
2022-11-19T02:42:04.375Z,0.84
2022-11-19T02:45:10.659Z,0.84
2022-11-19T02:48:28.026Z,0.52
2022-11-19T02:51:25.392Z,0.43
2022-11-19T02:54:22.112Z,0.53
2022-11-19T02:57:19.457Z,0.42
2022-11-19T03:00:35.405Z,0.65
2022-11-19T03:03:50.708Z,0.35
2022-11-19T03:06:48.825Z,0.26
2022-11-19T03:09:53.033Z,0.26
2022-11-19T03:12:56.617Z,0.24
2022-11-19T03:16:13.673Z,0.19
2022-11-19T03:19:28.508Z,0.30
2022-11-19T03:22:27.476Z,0.17
2022-11-19T03:25:29.334Z,0.19
2022-11-19T03:28:29.306Z,0.13
2022-11-19T03:31:26.525Z,-0.02
2022-11-19T03:34:23.674Z,0.08
2022-11-19T03:37:21.363Z,-0.03
2022-11-19T03:40:18.866Z,0.11
2022-11-19T03:43:18.317Z,0.26
2022-11-19T03:46:16.379Z,0.12
2022-11-19T03:49:13.525Z,0.16
2022-11-19T03:52:18.646Z,0.07
2022-11-19T03:55:16.374Z,0.06
2022-11-19T03:58:13.527Z,-0.03
2022-11-19T04:01:10.817Z,-0.13
2022-11-19T04:04:27.132Z,-0.18
2022-11-19T04:07:24.525Z,-0.13
2022-11-19T04:10:21.209Z,-0.16
2022-11-19T04:13:18.473Z,-0.01
2022-11-19T04:16:15.555Z,-0.10
2022-11-19T04:19:12.587Z,0.03
2022-11-19T04:22:09.427Z,0.03
2022-11-19T04:25:06.795Z,0.08
2022-11-19T04:28:04.393Z,0.08
2022-11-19T04:31:01.322Z,-0.08
2022-11-19T04:33:58.417Z,-0.13
2022-11-19T04:36:55.283Z,-0.06
2022-11-19T04:39:52.094Z,-0.13
2022-11-19T04:42:49.662Z,-0.23
2022-11-19T04:45:46.777Z,-0.07
2022-11-19T04:48:44.444Z,-0.11
2022-11-19T04:51:41.664Z,-0.11
2022-11-19T04:54:39.312Z,0.13
2022-11-19T04:57:36.115Z,-0.07
2022-11-19T05:00:33.535Z,0.08
2022-11-19T05:03:30.330Z,-0.10
2022-11-19T05:06:27.129Z,-0.30
2022-11-19T05:09:24.500Z,-0.25
2022-11-19T05:12:21.591Z,-0.19
2022-11-19T05:15:18.649Z,-0.09
2022-11-19T05:18:15.577Z,0.08
2022-11-19T05:21:12.324Z,0.06
2022-11-19T05:24:09.385Z,-0.16
2022-11-19T05:27:06.420Z,-0.03
2022-11-19T05:30:04.500Z,0.11
2022-11-19T05:33:01.659Z,0.21
2022-11-19T05:35:58.653Z,0.33
2022-11-19T05:38:57.879Z,0.47
2022-11-19T05:41:55.396Z,0.61
2022-11-19T05:44:52.606Z,0.54
2022-11-19T05:47:54.566Z,0.38
2022-11-19T05:50:53.916Z,0.44
2022-11-19T05:53:52.501Z,0.38
2022-11-19T05:56:49.589Z,0.38
2022-11-19T05:59:46.482Z,0.50
2022-11-19T06:02:43.407Z,0.41
2022-11-19T06:05:40.920Z,0.60
2022-11-19T06:08:38.559Z,0.53
2022-11-19T06:11:50.974Z,0.35
2022-11-19T06:14:48.626Z,0.20
2022-11-19T06:17:45.802Z,0.01
2022-11-19T06:20:42.475Z,-0.11
2022-11-19T06:23:39.677Z,-0.12
2022-11-19T06:26:36.521Z,0.08
2022-11-19T06:29:33.808Z,0.11
2022-11-19T06:32:30.627Z,0.11
2022-11-19T06:35:27.305Z,0.16
2022-11-19T06:38:24.185Z,0.12
2022-11-19T06:41:21.345Z,0.08
2022-11-19T06:44:18.727Z,0.24
2022-11-19T06:47:15.636Z,0.29
2022-11-19T06:50:12.841Z,0.20
2022-11-19T06:53:10.591Z,0.39
2022-11-19T06:56:07.899Z,0.39
2022-11-19T06:59:05.732Z,0.56
2022-11-19T07:02:02.707Z,0.58
2022-11-19T07:04:59.385Z,0.60
2022-11-19T07:08:01.571Z,0.78
2022-11-19T07:11:00.904Z,0.74
2022-11-19T07:13:58.929Z,0.48
2022-11-19T07:16:56.244Z,0.44
2022-11-19T07:19:53.769Z,0.48
2022-11-19T07:22:53.667Z,0.58
2022-11-19T07:26:00.272Z,0.72
2022-11-19T07:29:01.738Z,0.92
2022-11-19T07:32:01.463Z,0.95
2022-11-19T07:34:58.953Z,0.76
2022-11-19T07:37:56.555Z,0.60
2022-11-19T07:40:54.766Z,0.57
2022-11-19T07:43:51.705Z,0.76
2022-11-19T07:46:48.378Z,0.98
2022-11-19T07:49:45.743Z,1.14
2022-11-19T07:52:42.822Z,1.22
2022-11-19T07:55:39.690Z,1.53
2022-11-19T07:58:36.702Z,1.62
2022-11-19T08:01:33.759Z,1.79
2022-11-19T08:04:30.884Z,1.99
2022-11-19T08:07:27.754Z,2.15
2022-11-19T08:10:31.463Z,2.17
2022-11-19T08:13:28.719Z,2.35
2022-11-19T08:16:44.205Z,2.39
2022-11-19T08:19:41.885Z,2.68
2022-11-19T08:22:41.996Z,2.71
2022-11-19T08:25:41.863Z,2.64
2022-11-19T08:28:38.585Z,2.61
2022-11-19T08:31:35.450Z,2.67
2022-11-19T08:34:32.316Z,2.68
2022-11-19T08:37:29.456Z,2.81
2022-11-19T08:40:26.416Z,2.97
2022-11-19T08:43:24.965Z,2.77
2022-11-19T08:46:22.434Z,2.79
2022-11-19T08:49:20.035Z,2.82
2022-11-19T08:52:17.793Z,3.00
2022-11-19T08:55:14.799Z,3.50
2022-11-19T08:58:11.586Z,3.52
2022-11-19T09:01:12.162Z,3.46
2022-11-19T09:04:09.825Z,3.50
2022-11-19T09:07:06.866Z,3.60
2022-11-19T09:10:03.897Z,3.47
2022-11-19T09:13:04.594Z,3.48
2022-11-19T09:16:01.643Z,3.78
2022-11-19T09:18:58.293Z,3.70
2022-11-19T09:21:55.844Z,3.84
2022-11-19T09:24:52.868Z,3.88
2022-11-19T09:27:49.893Z,3.78
2022-11-19T09:31:00.918Z,3.89
2022-11-19T09:33:57.760Z,4.20
2022-11-19T09:36:54.994Z,4.19
2022-11-19T09:39:55.727Z,4.25
2022-11-19T09:43:34.270Z,4.45
2022-11-19T09:46:40.754Z,4.27
2022-11-19T09:49:41.773Z,4.26
2022-11-19T09:52:43.992Z,4.53
2022-11-19T09:55:43.941Z,4.88
2022-11-19T09:58:45.299Z,4.89
2022-11-19T10:01:42.336Z,5.04
2022-11-19T10:04:39.859Z,5.06
2022-11-19T10:08:05.828Z,5.18
2022-11-19T10:11:21.216Z,5.20
2022-11-19T10:14:27.415Z,4.84
2022-11-19T10:17:33.089Z,4.47
2022-11-19T10:20:59.565Z,4.49
2022-11-19T10:24:20.157Z,4.73
2022-11-19T10:27:41.329Z,4.61
2022-11-19T10:30:38.495Z,4.38
2022-11-19T10:34:13.044Z,4.27
2022-11-19T10:37:16.818Z,4.17
2022-11-19T10:40:18.735Z,4.36
2022-11-19T10:43:46.369Z,4.28
2022-11-19T10:46:44.091Z,4.73
2022-11-19T10:49:42.050Z,5.42
2022-11-19T10:52:41.911Z,5.93
2022-11-19T10:55:41.147Z,6.38
2022-11-19T10:58:54.635Z,6.21
2022-11-19T11:02:00.411Z,6.31
2022-11-19T11:05:04.718Z,5.88
2022-11-19T11:08:01.995Z,5.68
2022-11-19T11:10:59.931Z,5.82
2022-11-19T11:14:17.577Z,6.12
2022-11-19T11:17:20.261Z,5.92
2022-11-19T11:20:17.753Z,5.82
2022-11-19T11:23:19.791Z,5.91
2022-11-19T11:26:34.907Z,6.29
2022-11-19T11:29:31.467Z,6.54
2022-11-19T11:32:30.613Z,6.33
2022-11-19T11:35:31.901Z,6.67
2022-11-19T11:38:28.996Z,7.00
2022-11-19T11:44:57.978Z,7.30
2022-11-19T11:47:54.721Z,7.52
2022-11-19T11:50:51.700Z,7.32
2022-11-19T11:53:50.665Z,7.42
2022-11-19T11:56:47.680Z,7.71
2022-11-19T11:59:45.158Z,7.61
2022-11-19T12:02:43.209Z,7.36
2022-11-19T12:05:44.321Z,7.41
2022-11-19T12:09:23.838Z,7.12
2022-11-19T12:12:33.108Z,6.93
2022-11-19T12:15:57.292Z,7.06
2022-11-19T12:19:14.607Z,7.40
2022-11-19T12:22:30.012Z,7.54
2022-11-19T12:25:49.938Z,7.31
2022-11-19T12:29:08.076Z,7.49
2022-11-19T12:32:35.810Z,7.37
2022-11-19T12:35:42.082Z,8.60
2022-11-19T12:38:42.743Z,9.00
2022-11-19T12:41:54.264Z,9.18
2022-11-19T12:45:13.503Z,9.12
2022-11-19T12:48:25.995Z,8.05
2022-11-19T12:52:00.061Z,7.22
2022-11-19T12:55:14.315Z,6.97
2022-11-19T12:58:21.315Z,6.78
2022-11-19T13:01:23.339Z,6.81
2022-11-19T13:04:40.523Z,7.06
2022-11-19T13:07:39.980Z,7.67
2022-11-19T13:10:44.776Z,7.87
2022-11-19T13:13:44.629Z,7.54
2022-11-19T13:16:41.708Z,7.40
2022-11-19T13:19:38.790Z,6.82
2022-11-19T13:22:36.893Z,6.44
2022-11-19T13:25:40.203Z,5.99
2022-11-19T13:29:02.116Z,5.71
2022-11-19T13:32:12.833Z,5.94
2022-11-19T13:35:46.001Z,6.45
2022-11-19T13:38:55.313Z,7.00
2022-11-19T13:42:11.982Z,7.77
2022-11-19T13:45:14.568Z,8.24
2022-11-19T13:48:25.108Z,7.35
2022-11-19T13:51:29.302Z,7.01
2022-11-19T13:54:29.440Z,6.88
2022-11-19T13:57:32.156Z,6.67
2022-11-19T14:00:28.786Z,6.53
2022-11-19T14:03:54.273Z,6.30
2022-11-19T14:07:13.826Z,6.13
2022-11-19T14:10:38.384Z,6.12
2022-11-19T14:13:45.280Z,6.34
2022-11-19T14:17:10.551Z,6.72
2022-11-19T14:20:54.512Z,7.03
2022-11-19T14:24:10.734Z,7.08
2022-11-19T14:27:18.756Z,7.07
2022-11-19T14:30:17.701Z,7.05
2022-11-19T14:33:42.964Z,7.24
2022-11-19T14:36:58.784Z,7.21
2022-11-19T14:40:07.927Z,7.26
2022-11-19T14:43:23.472Z,7.45
2022-11-19T14:46:25.532Z,7.50
2022-11-19T14:49:28.942Z,7.33
2022-11-19T14:52:39.484Z,7.20
2022-11-19T14:55:36.761Z,6.73
2022-11-19T14:58:33.676Z,6.45
2022-11-19T15:01:30.846Z,6.31
2022-11-19T15:04:36.451Z,6.12
2022-11-19T15:07:33.706Z,5.87
2022-11-19T15:10:31.858Z,5.84
2022-11-19T15:13:30.122Z,5.64
2022-11-19T15:16:26.962Z,5.81
2022-11-19T15:19:50.851Z,6.11
2022-11-19T15:23:08.915Z,5.86
2022-11-19T15:26:11.464Z,5.60
2022-11-19T15:29:47.263Z,5.30
2022-11-19T15:32:56.632Z,5.19
2022-11-19T15:36:00.049Z,5.38
2022-11-19T15:39:09.701Z,5.33
2022-11-19T15:42:12.046Z,5.14
2022-11-19T15:45:15.682Z,4.90
2022-11-19T15:48:20.431Z,4.79
2022-11-19T15:51:18.169Z,4.74
2022-11-19T15:54:15.219Z,4.63
2022-11-19T15:57:24.742Z,4.51
2022-11-19T16:00:22.561Z,4.61
2022-11-19T16:03:20.153Z,4.85
2022-11-19T16:06:17.041Z,4.80
2022-11-19T16:09:19.477Z,4.61
2022-11-19T16:12:43.396Z,4.34
2022-11-19T16:16:06.299Z,4.14
2022-11-19T16:19:03.994Z,4.07
2022-11-19T16:22:02.006Z,3.95
2022-11-19T16:25:04.760Z,3.84
2022-11-19T16:28:07.219Z,3.88
2022-11-19T16:31:05.040Z,3.92
2022-11-19T16:34:02.107Z,4.21
2022-11-19T16:36:59.044Z,4.35
2022-11-19T16:39:56.004Z,4.78
2022-11-19T16:42:54.932Z,4.86
2022-11-19T16:45:52.127Z,4.96
2022-11-19T16:48:48.935Z,4.80
2022-11-19T16:51:53.349Z,4.59
2022-11-19T16:54:51.097Z,4.51
2022-11-19T16:57:56.118Z,4.34
2022-11-19T17:00:55.469Z,4.27
2022-11-19T17:03:52.866Z,3.92
2022-11-19T17:06:50.127Z,3.63
2022-11-19T17:09:47.890Z,3.45
2022-11-19T17:12:54.973Z,3.39
2022-11-19T17:15:52.360Z,4.19
2022-11-19T17:18:50.444Z,4.25
2022-11-19T17:21:51.869Z,3.95
2022-11-19T17:24:49.210Z,3.77
2022-11-19T17:27:49.109Z,3.54
2022-11-19T17:30:46.148Z,3.52
2022-11-19T17:34:07.843Z,3.28
2022-11-19T17:37:07.646Z,2.94
2022-11-19T17:40:05.401Z,3.04
2022-11-19T17:43:21.597Z,2.94
2022-11-19T17:46:18.837Z,3.19
2022-11-19T17:49:16.111Z,3.66
2022-11-19T17:52:27.034Z,3.68
2022-11-19T17:55:24.246Z,3.80
2022-11-19T17:58:21.309Z,3.72
2022-11-19T18:01:19.275Z,3.44
2022-11-19T18:04:17.505Z,3.17
2022-11-19T18:07:15.448Z,2.98
2022-11-19T18:10:13.219Z,2.95
2022-11-19T18:13:11.317Z,2.87
2022-11-19T18:16:16.974Z,2.80
2022-11-19T18:19:23.323Z,2.64
2022-11-19T18:22:20.984Z,2.60
2022-11-19T18:25:18.769Z,2.61
2022-11-19T18:28:16.181Z,2.72
2022-11-19T18:31:33.283Z,3.01
2022-11-19T18:34:30.165Z,2.84
2022-11-19T18:37:28.215Z,2.76
2022-11-19T18:40:26.475Z,2.68
2022-11-19T18:43:42.272Z,2.51
2022-11-19T18:46:39.991Z,2.55
2022-11-19T18:49:37.645Z,2.45
2022-11-19T18:52:35.361Z,2.39
2022-11-19T18:55:33.258Z,2.51
2022-11-19T18:58:30.184Z,2.38
2022-11-19T19:01:27.684Z,2.20
2022-11-19T19:04:25.189Z,2.17
2022-11-19T19:07:22.075Z,2.20
2022-11-19T19:10:20.198Z,1.71
2022-11-19T19:13:17.115Z,1.64
2022-11-19T19:16:14.063Z,1.89
2022-11-19T19:19:11.429Z,1.99
2022-11-19T19:22:09.199Z,1.94
2022-11-19T19:25:06.234Z,1.70
2022-11-19T19:28:03.427Z,1.89
2022-11-19T19:31:01.123Z,2.25
2022-11-19T19:33:58.636Z,2.07
2022-11-19T19:36:55.802Z,1.95
2022-11-19T19:39:53.255Z,1.50
2022-11-19T19:42:50.293Z,1.33
2022-11-19T19:45:49.068Z,1.71
2022-11-19T19:48:50.209Z,1.90
2022-11-19T19:51:46.913Z,1.94
2022-11-19T19:54:43.953Z,1.87
2022-11-19T19:57:40.915Z,1.90
2022-11-19T20:00:38.841Z,1.94
2022-11-19T20:03:36.721Z,1.99
2022-11-19T20:06:35.369Z,1.88
2022-11-19T20:09:31.961Z,1.56
2022-11-19T20:12:49.122Z,1.26
2022-11-19T20:15:48.209Z,1.64
2022-11-19T20:18:45.951Z,1.51
2022-11-19T20:21:43.291Z,1.55
2022-11-19T20:24:40.216Z,1.69
2022-11-19T20:27:37.178Z,2.23
2022-11-19T20:30:34.081Z,3.06
2022-11-19T20:33:31.205Z,3.23
2022-11-19T20:36:29.758Z,2.88
2022-11-19T20:39:27.192Z,2.36
2022-11-19T20:42:42.372Z,1.78
2022-11-19T20:45:39.326Z,1.20
2022-11-19T20:48:36.287Z,1.20
2022-11-19T20:51:35.062Z,1.26
2022-11-19T20:54:32.470Z,1.25
2022-11-19T20:57:29.917Z,1.53
2022-11-19T21:00:27.465Z,2.15
2022-11-19T21:03:24.947Z,2.68
2022-11-19T21:06:22.109Z,3.31
2022-11-19T21:09:19.935Z,3.40
2022-11-19T21:12:17.019Z,2.91
2022-11-19T21:15:14.904Z,2.84
2022-11-19T21:18:12.194Z,3.28
2022-11-19T21:21:10.290Z,3.52
2022-11-19T21:24:07.762Z,2.95
2022-11-19T21:27:04.764Z,2.10
2022-11-19T21:30:02.122Z,1.80
2022-11-19T21:32:59.994Z,1.67
2022-11-19T21:35:57.278Z,1.48
2022-11-19T21:38:54.222Z,1.81
2022-11-19T21:41:51.284Z,2.39
2022-11-19T21:44:48.159Z,2.32
2022-11-19T21:47:45.185Z,1.79
2022-11-19T21:50:42.254Z,1.49
2022-11-19T21:53:41.709Z,1.48
2022-11-19T21:56:39.261Z,1.39
2022-11-19T21:59:36.038Z,1.36
2022-11-19T22:02:32.901Z,1.27
2022-11-19T22:05:30.018Z,1.36
2022-11-19T22:08:32.044Z,1.54
2022-11-19T22:11:29.114Z,1.77
2022-11-19T22:14:26.001Z,1.63
2022-11-19T22:17:23.246Z,1.10
2022-11-19T22:20:20.366Z,0.48
2022-11-19T22:23:22.961Z,0.06
2022-11-19T22:26:21.028Z,0.13
2022-11-19T22:29:18.375Z,0.56
2022-11-19T22:32:14.950Z,0.79
2022-11-19T22:35:12.327Z,0.69
2022-11-19T22:38:09.242Z,0.45
2022-11-19T22:41:11.419Z,0.61
2022-11-19T22:44:08.003Z,0.61
2022-11-19T22:47:04.982Z,0.24
2022-11-19T22:50:02.135Z,0.33
2022-11-19T22:52:59.315Z,0.38
2022-11-19T22:56:00.816Z,0.20
2022-11-19T22:58:58.299Z,0.12
2022-11-19T23:01:54.907Z,1.12
2022-11-19T23:04:52.304Z,1.83
2022-11-19T23:07:49.880Z,1.54
2022-11-19T23:10:48.194Z,0.68
2022-11-19T23:13:45.259Z,1.20
2022-11-19T23:16:41.836Z,1.62
2022-11-19T23:19:38.981Z,0.96
2022-11-19T23:22:36.081Z,0.48
2022-11-19T23:25:33.004Z,0.32
2022-11-19T23:28:31.187Z,1.33
2022-11-19T23:31:30.189Z,2.02
2022-11-19T23:34:27.308Z,1.80
2022-11-19T23:37:24.404Z,1.36
2022-11-19T23:40:21.239Z,1.77
2022-11-19T23:43:18.415Z,1.78
2022-11-19T23:46:20.001Z,2.38
2022-11-19T23:49:17.201Z,2.36
2022-11-19T23:52:14.024Z,1.86
2022-11-19T23:55:11.301Z,2.14
2022-11-19T23:58:08.004Z,1.35
